Time;durP1;ratioP1;P1;durP2;ratioP2;P2;SDS_P1;SDS_P2;PMS_P1;PMS_P2;Temp;Humidity;BMP_temperature;BMP_pressure;BME280_temperature;BME280_humidity;BME280_pressure;Samples;Min_cycle;Max_cycle;Signal;HPM_P1;HPM_P2
2021/07/10 00:01:58;;;;;;;14.30;7.40;;;16.10;99.90;;;;;;4987376;28;20309;-89
2021/07/10 00:04:24;;;;;;;17.57;7.20;;;16.00;99.90;;;;;;4995857;28;20365;-89
2021/07/10 00:06:50;;;;;;;15.47;8.07;;;16.00;99.90;;;;;;4995900;28;20248;-89
2021/07/10 00:09:16;;;;;;;13.30;7.43;;;16.00;99.90;;;;;;4995306;28;20221;-89
2021/07/10 00:11:41;;;;;;;14.03;7.63;;;16.00;99.90;;;;;;4997052;28;20354;-90
2021/07/10 00:14:07;;;;;;;15.27;8.23;;;15.90;99.90;;;;;;5016576;28;20309;-89
2021/07/10 00:16:33;;;;;;;12.10;7.73;;;15.90;99.90;;;;;;5011828;28;20195;-89
2021/07/10 00:18:59;;;;;;;12.80;8.30;;;15.90;99.90;;;;;;4996500;28;20241;-89
2021/07/10 00:21:25;;;;;;;13.03;7.73;;;15.90;99.90;;;;;;5021964;28;20723;-89
2021/07/10 00:23:51;;;;;;;15.07;6.77;;;16.00;99.90;;;;;;5011714;28;20218;-89
2021/07/10 00:26:17;;;;;;;17.17;8.03;;;16.00;99.90;;;;;;4994776;28;20570;-88
2021/07/10 00:28:42;;;;;;;14.60;7.67;;;16.00;99.90;;;;;;5011153;28;20256;-88
2021/07/10 00:31:10;;;;;;;11.20;6.67;;;16.10;99.90;;;;;;5020877;28;20183;-88
2021/07/10 00:33:36;;;;;;;12.30;7.73;;;16.10;99.90;;;;;;5012124;28;20801;-88
2021/07/10 00:36:02;;;;;;;13.57;8.00;;;16.00;99.90;;;;;;5012344;28;20213;-88
2021/07/10 00:38:28;;;;;;;18.47;8.80;;;15.90;99.90;;;;;;5012128;28;20771;-88
2021/07/10 00:40:54;;;;;;;15.03;8.70;;;15.90;99.90;;;;;;5011315;28;20238;-88
2021/07/10 00:43:20;;;;;;;15.90;9.53;;;15.90;99.90;;;;;;5011170;28;20196;-89
2021/07/10 00:45:47;;;;;;;15.67;8.33;;;15.80;99.90;;;;;;5002772;28;20185;-89
2021/07/10 00:48:13;;;;;;;19.27;9.27;;;15.80;99.90;;;;;;5020223;28;20226;-89
2021/07/10 00:50:39;;;;;;;18.27;10.03;;;15.80;99.90;;;;;;5019700;28;20206;-89
2021/07/10 00:53:05;;;;;;;19.23;11.20;;;15.80;99.90;;;;;;5018317;28;20227;-89
2021/07/10 00:55:31;;;;;;;16.80;10.03;;;15.80;99.90;;;;;;4995410;28;20186;-89
2021/07/10 00:57:59;;;;;;;18.53;10.20;;;15.80;99.90;;;;;;5011898;28;20308;-89
2021/07/10 01:00:27;;;;;;;18.60;9.43;;;15.80;99.90;;;;;;5018416;28;20291;-89
2021/07/10 01:02:55;;;;;;;21.80;11.70;;;15.70;99.90;;;;;;5010504;28;21111;-89
2021/07/10 01:05:24;;;;;;;20.90;10.20;;;15.70;99.90;;;;;;5027158;28;20214;-89
2021/07/10 01:07:50;;;;;;;22.27;11.43;;;15.60;99.90;;;;;;5022091;28;20326;-88
2021/07/10 01:10:17;;;;;;;20.23;10.67;;;15.50;99.90;;;;;;5020898;28;20243;-89
2021/07/10 01:12:48;;;;;;;20.47;10.87;;;15.50;99.90;;;;;;5002794;28;20218;-89
2021/07/10 01:15:15;;;;;;;20.77;10.50;;;15.40;99.90;;;;;;5018327;28;20226;-90
2021/07/10 01:17:44;;;;;;;24.07;12.23;;;15.40;99.90;;;;;;5011044;28;20226;-89
2021/07/10 01:20:16;;;;;;;24.90;11.10;;;15.40;99.90;;;;;;5019185;28;20234;-89
2021/07/10 01:22:44;;;;;;;23.33;11.30;;;15.30;99.90;;;;;;5019334;28;20284;-89
2021/07/10 01:25:12;;;;;;;24.70;11.80;;;15.30;99.90;;;;;;5017082;28;20248;-89
2021/07/10 01:27:39;;;;;;;23.93;11.07;;;15.20;99.90;;;;;;5026518;28;20226;-89
2021/07/10 01:30:08;;;;;;;27.43;10.70;;;15.20;99.90;;;;;;5017942;28;20305;-89
2021/07/10 01:32:39;;;;;;;19.33;11.30;;;15.10;99.90;;;;;;5020154;28;20313;-90
2021/07/10 01:35:07;;;;;;;20.13;10.43;;;15.00;99.90;;;;;;5019284;28;20214;-89
2021/07/10 01:37:32;;;;;;;22.20;11.73;;;15.00;99.90;;;;;;5012210;28;20249;-89
2021/07/10 01:39:58;;;;;;;24.00;11.03;;;14.90;99.90;;;;;;5012123;28;20584;-89
2021/07/10 01:42:24;;;;;;;35.43;11.27;;;14.90;99.90;;;;;;4993061;28;20224;-89
2021/07/10 01:44:51;;;;;;;19.43;10.07;;;14.80;99.90;;;;;;4994753;28;20205;-89
2021/07/10 01:47:18;;;;;;;15.87;9.30;;;14.60;99.90;;;;;;4994756;28;20240;-89
2021/07/10 01:49:44;;;;;;;19.30;10.43;;;14.50;99.90;;;;;;5010696;28;20316;-90
2021/07/10 01:52:10;;;;;;;19.37;9.73;;;14.30;99.90;;;;;;5011408;28;20277;-89
2021/07/10 01:54:35;;;;;;;17.23;10.40;;;14.20;99.90;;;;;;5018395;28;20785;-89
2021/07/10 01:57:07;;;;;;;16.93;8.30;;;14.20;99.90;;;;;;4994768;28;20206;-89
2021/07/10 01:59:33;;;;;;;19.97;11.97;;;14.30;99.90;;;;;;5010698;28;20271;-89
2021/07/10 02:01:59;;;;;;;21.93;11.40;;;14.30;99.90;;;;;;5019610;28;20273;-89
2021/07/10 02:04:25;;;;;;;24.90;12.80;;;14.40;99.90;;;;;;5015181;28;20178;-89
2021/07/10 02:06:51;;;;;;;16.97;9.27;;;14.40;99.90;;;;;;4999107;28;20190;-89
2021/07/10 02:09:17;;;;;;;16.27;7.97;;;14.50;99.90;;;;;;5022221;28;20321;-89
2021/07/10 02:11:48;;;;;;;16.07;9.77;;;14.40;99.90;;;;;;5023382;28;20301;-89
2021/07/10 02:14:15;;;;;;;16.23;10.13;;;14.40;99.90;;;;;;5024540;28;20298;-89
2021/07/10 02:16:42;;;;;;;16.57;9.00;;;14.40;99.90;;;;;;5038244;28;20287;-89
2021/07/10 02:19:07;;;;;;;14.10;8.20;;;14.40;99.90;;;;;;5003018;28;20661;-89
2021/07/10 02:21:33;;;;;;;17.50;10.40;;;14.50;99.90;;;;;;5014748;28;20213;-89
2021/07/10 02:23:59;;;;;;;21.73;10.70;;;14.60;99.90;;;;;;5022980;28;20230;-89
2021/07/10 02:26:25;;;;;;;20.00;10.23;;;14.70;99.90;;;;;;5019871;28;20218;-89
2021/07/10 02:28:51;;;;;;;27.80;12.30;;;14.80;99.90;;;;;;5020401;28;20616;-89
2021/07/10 02:31:17;;;;;;;26.90;13.53;;;15.00;99.90;;;;;;4999120;28;20183;-89
2021/07/10 02:33:42;;;;;;;29.17;14.10;;;15.10;99.90;;;;;;5007262;28;20203;-89
2021/07/10 02:36:08;;;;;;;29.60;14.30;;;15.20;99.90;;;;;;4997562;28;20589;-89
2021/07/10 02:38:34;;;;;;;26.50;13.43;;;15.30;99.90;;;;;;4997259;28;20226;-89
2021/07/10 02:41:00;;;;;;;29.57;13.80;;;15.40;99.90;;;;;;4997378;28;20234;-89
2021/07/10 02:43:26;;;;;;;25.97;13.13;;;15.40;99.90;;;;;;4997238;28;20885;-89
2021/07/10 02:45:51;;;;;;;32.43;15.27;;;15.50;99.90;;;;;;5014017;28;20270;-89
2021/07/10 02:48:17;;;;;;;29.63;12.47;;;15.60;99.90;;;;;;5013304;28;20211;-88
2021/07/10 02:50:43;;;;;;;31.30;14.73;;;15.70;99.90;;;;;;4997430;28;20205;-89
2021/07/10 02:53:09;;;;;;;27.10;14.33;;;15.70;99.90;;;;;;4995929;28;20253;-88
2021/07/10 02:55:36;;;;;;;27.73;13.73;;;15.80;99.90;;;;;;5007062;28;20648;-88
2021/07/10 02:58:02;;;;;;;27.70;13.63;;;15.80;99.90;;;;;;5022026;28;20179;-88
2021/07/10 03:00:29;;;;;;;21.80;11.83;;;15.90;99.90;;;;;;5012948;28;20234;-88
2021/07/10 03:02:59;;;;;;;27.90;15.23;;;15.90;99.90;;;;;;5012896;28;20699;-88
2021/07/10 03:05:25;;;;;;;22.63;13.17;;;15.90;99.90;;;;;;5022485;28;20229;-88
2021/07/10 03:07:51;;;;;;;21.33;13.87;;;15.90;99.90;;;;;;5022459;28;20210;-88
2021/07/10 03:10:27;;;;;;;27.87;12.53;;;15.90;99.90;;;;;;5013746;28;20187;-88
2021/07/10 03:12:55;;;;;;;25.17;12.63;;;16.00;99.90;;;;;;5012872;28;20694;-88
2021/07/10 03:15:21;;;;;;;24.70;12.90;;;16.00;99.90;;;;;;4988322;28;20293;-88
2021/07/10 03:17:48;;;;;;;30.07;13.50;;;16.00;99.90;;;;;;5005938;28;20214;-88
2021/07/10 03:20:16;;;;;;;23.93;12.47;;;16.10;99.90;;;;;;5009410;28;20254;-89
2021/07/10 03:22:42;;;;;;;24.17;11.37;;;16.10;99.90;;;;;;5009246;28;20273;-89
2021/07/10 03:25:10;;;;;;;23.07;12.40;;;16.10;99.90;;;;;;4993308;28;20192;-89
2021/07/10 03:27:36;;;;;;;22.67;10.73;;;16.10;99.90;;;;;;5019107;28;20583;-89
2021/07/10 03:30:05;;;;;;;20.17;10.50;;;16.10;99.90;;;;;;4993312;28;20242;-89
2021/07/10 03:32:31;;;;;;;21.30;10.60;;;16.10;99.90;;;;;;5016329;28;20574;-89
2021/07/10 03:34:57;;;;;;;23.07;12.00;;;16.10;99.90;;;;;;5009720;28;20229;-89
2021/07/10 03:37:23;;;;;;;24.50;10.60;;;16.10;99.90;;;;;;4993148;28;20743;-89
2021/07/10 03:39:48;;;;;;;24.10;12.33;;;16.10;99.90;;;;;;5009163;28;20203;-88
2021/07/10 03:42:14;;;;;;;20.27;11.17;;;16.10;99.90;;;;;;5008474;28;20329;-88
2021/07/10 03:44:40;;;;;;;21.67;11.70;;;16.10;99.90;;;;;;5000590;28;20234;-89
2021/07/10 03:47:06;;;;;;;23.07;11.60;;;16.20;99.90;;;;;;5017717;28;20215;-89
2021/07/10 03:49:32;;;;;;;21.80;11.30;;;16.20;99.90;;;;;;5000754;28;20222;-88
2021/07/10 03:51:57;;;;;;;25.77;12.90;;;16.20;99.90;;;;;;5021077;28;20205;-88
2021/07/10 03:54:23;;;;;;;21.97;11.47;;;16.30;99.90;;;;;;5017535;28;20219;-89
2021/07/10 03:56:49;;;;;;;27.23;12.30;;;16.30;99.90;;;;;;4992624;28;20237;-89
2021/07/10 03:59:15;;;;;;;25.40;13.37;;;16.30;99.90;;;;;;5008801;28;20818;-90
2021/07/10 04:01:45;;;;;;;22.50;12.23;;;16.40;99.90;;;;;;5009600;28;21778;-89
2021/07/10 04:04:14;;;;;;;24.43;12.57;;;16.30;99.90;;;;;;4995112;28;20205;-89
2021/07/10 04:06:40;;;;;;;24.43;12.90;;;16.40;99.90;;;;;;5016049;28;20234;-89
2021/07/10 04:09:06;;;;;;;25.33;11.63;;;16.40;99.90;;;;;;4999482;28;20223;-89
2021/07/10 04:11:32;;;;;;;25.27;12.00;;;16.40;99.90;;;;;;4990894;28;20250;-89
2021/07/10 04:13:58;;;;;;;28.73;13.70;;;16.50;99.90;;;;;;5016816;28;20222;-89
2021/07/10 04:16:24;;;;;;;23.20;13.13;;;16.50;99.90;;;;;;5018145;28;20187;-90
2021/07/10 04:18:49;;;;;;;25.90;12.73;;;16.50;99.90;;;;;;5011096;28;20241;-89
2021/07/10 04:21:15;;;;;;;21.07;10.70;;;16.50;99.90;;;;;;5004154;28;20211;-89
2021/07/10 04:23:42;;;;;;;27.30;13.10;;;16.60;99.90;;;;;;5020386;28;20214;-89
2021/07/10 04:26:08;;;;;;;21.17;12.30;;;16.60;99.90;;;;;;5012145;28;22012;-88
2021/07/10 04:28:34;;;;;;;26.37;12.83;;;16.60;99.90;;;;;;5018966;28;20270;-89
2021/07/10 04:31:00;;;;;;;30.57;13.30;;;16.50;99.90;;;;;;5011962;28;20179;-90
2021/07/10 04:33:26;;;;;;;22.30;11.37;;;16.40;99.90;;;;;;5019168;28;20278;-89
2021/07/10 04:35:52;;;;;;;20.43;11.03;;;16.40;99.90;;;;;;5018600;28;20337;-89
2021/07/10 04:38:19;;;;;;;22.67;12.03;;;16.50;99.90;;;;;;4995144;28;20209;-89
2021/07/10 04:40:45;;;;;;;26.70;13.33;;;16.50;99.90;;;;;;5017447;28;20971;-89
2021/07/10 04:43:11;;;;;;;24.10;12.07;;;16.60;99.90;;;;;;5011141;28;20269;-89
2021/07/10 04:45:37;;;;;;;20.77;12.13;;;16.60;99.90;;;;;;4995125;28;20313;-89
2021/07/10 04:48:03;;;;;;;23.57;13.67;;;16.70;99.90;;;;;;5011662;28;20224;-89
2021/07/10 04:50:29;;;;;;;26.13;13.80;;;16.80;99.90;;;;;;5002852;28;20226;-89
2021/07/10 04:52:55;;;;;;;27.63;12.83;;;16.80;99.90;;;;;;5011502;28;20220;-89
2021/07/10 04:55:21;;;;;;;27.53;14.27;;;16.80;99.90;;;;;;4995628;28;20248;-89
2021/07/10 04:57:47;;;;;;;25.40;14.40;;;16.90;99.90;;;;;;4995659;28;20194;-88
2021/07/10 05:00:14;;;;;;;28.17;12.93;;;16.90;99.90;;;;;;5019768;28;20710;-88
2021/07/10 05:02:41;;;;;;;26.10;12.03;;;16.90;99.90;;;;;;5038905;28;20222;-89
2021/07/10 05:05:07;;;;;;;23.27;12.93;;;16.90;99.90;;;;;;5020931;28;20210;-88
2021/07/10 05:07:33;;;;;;;26.77;14.30;;;17.00;99.90;;;;;;5010804;28;20663;-88
2021/07/10 05:09:59;;;;;;;25.23;12.87;;;17.00;99.90;;;;;;5010443;28;20201;-89
2021/07/10 05:12:24;;;;;;;25.60;13.40;;;17.10;99.90;;;;;;5010748;28;20269;-88
2021/07/10 05:14:51;;;;;;;21.83;12.03;;;17.20;99.90;;;;;;4995049;28;20218;-89
2021/07/10 05:17:21;;;;;;;23.87;13.47;;;17.20;99.90;;;;;;4986389;28;20233;-88
2021/07/10 05:19:48;;;;;;;23.80;13.30;;;17.30;99.90;;;;;;5016708;28;20234;-89
2021/07/10 05:22:14;;;;;;;25.23;13.47;;;17.30;99.90;;;;;;5011235;28;20708;-89
2021/07/10 05:24:39;;;;;;;22.53;13.13;;;17.40;99.90;;;;;;5010448;28;20214;-89
2021/07/10 05:27:06;;;;;;;20.83;13.53;;;17.50;99.90;;;;;;4994651;28;20221;-89
2021/07/10 05:29:32;;;;;;;24.87;12.30;;;17.60;99.90;;;;;;5010692;28;20248;-89
2021/07/10 05:31:58;;;;;;;20.13;13.00;;;17.80;99.90;;;;;;5010225;28;20708;-88
2021/07/10 05:34:24;;;;;;;26.07;13.80;;;18.10;99.90;;;;;;5015732;28;20186;-87
2021/07/10 05:36:50;;;;;;;28.13;13.83;;;19.00;99.90;;;;;;4994011;28;20701;-88
2021/07/10 05:39:15;;;;;;;18.70;12.03;;;21.10;99.90;;;;;;4993770;28;20218;-87
2021/07/10 05:41:42;;;;;;;22.13;12.67;;;21.60;99.90;;;;;;5009020;28;20261;-89
2021/07/10 05:44:08;;;;;;;20.83;12.53;;;23.00;99.90;;;;;;5010464;28;21534;-88
2021/07/10 05:46:33;;;;;;;23.73;12.00;;;23.60;99.90;;;;;;5000901;28;20233;-88
2021/07/10 05:48:59;;;;;;;19.77;12.17;;;23.90;99.90;;;;;;4994122;28;20194;-89
2021/07/10 05:51:25;;;;;;;16.90;10.80;;;26.30;99.90;;;;;;4993072;28;20214;-89
2021/07/10 05:53:51;;;;;;;16.63;11.17;;;29.20;99.90;;;;;;5018263;28;20961;-88
2021/07/10 05:56:17;;;;;;;19.40;11.90;;;31.50;99.90;;;;;;4993469;28;20346;-90
2021/07/10 05:58:43;;;;;;;18.53;10.67;;;32.40;99.90;;;;;;5016935;28;20225;-88
2021/07/10 06:01:09;;;;;;;13.93;10.18;;;33.40;99.90;;;;;;4994419;28;20190;-88
2021/07/10 06:03:35;;;;;;;14.13;10.18;;;33.60;99.30;;;;;;5009676;28;20278;-89
2021/07/10 06:06:01;;;;;;;13.90;8.98;;;33.90;98.50;;;;;;4992163;28;20302;-86
2021/07/10 06:08:27;;;;;;;13.55;8.80;;;33.80;98.90;;;;;;5009238;28;20229;-87
2021/07/10 06:10:53;;;;;;;11.85;8.05;;;33.50;98.90;;;;;;5015764;28;20729;-87
2021/07/10 06:13:18;;;;;;;13.63;8.70;;;33.20;98.20;;;;;;5002552;28;20185;-85
2021/07/10 06:15:46;;;;;;;12.55;8.52;;;33.40;98.30;;;;;;4994725;28;20208;-88
2021/07/10 06:18:12;;;;;;;13.50;9.07;;;33.50;98.00;;;;;;5009421;28;20277;-88
2021/07/10 06:20:39;;;;;;;14.75;9.07;;;32.60;97.90;;;;;;5008222;28;20234;-88
2021/07/10 06:23:07;;;;;;;13.90;9.13;;;32.50;99.20;;;;;;5017951;28;20209;-88
2021/07/10 06:25:34;;;;;;;13.75;8.60;;;32.70;98.50;;;;;;5017703;28;20183;-88
2021/07/10 06:28:01;;;;;;;12.82;8.75;;;32.90;98.40;;;;;;5010887;28;20194;-89
2021/07/10 06:30:27;;;;;;;15.48;8.80;;;33.10;97.90;;;;;;5010102;28;20211;-89
2021/07/10 06:32:53;;;;;;;14.60;8.88;;;32.70;98.30;;;;;;5018502;28;20260;-87
2021/07/10 06:35:19;;;;;;;12.45;8.60;;;32.20;98.10;;;;;;4993717;28;20199;-88
2021/07/10 06:37:45;;;;;;;12.57;8.27;;;30.40;99.90;;;;;;5018264;28;20211;-88
2021/07/10 06:40:13;;;;;;;13.80;9.25;;;28.80;99.90;;;;;;4993281;28;20225;-88
2021/07/10 06:42:39;;;;;;;15.82;9.55;;;27.20;99.90;;;;;;5017726;28;20225;-88
2021/07/10 06:45:07;;;;;;;15.15;9.02;;;26.00;99.90;;;;;;5017976;28;20217;-87
2021/07/10 06:47:36;;;;;;;12.50;8.18;;;25.30;99.90;;;;;;5016006;28;20225;-88
2021/07/10 06:50:04;;;;;;;17.75;8.90;;;24.80;99.90;;;;;;5033098;28;20820;-88
2021/07/10 06:52:30;;;;;;;13.68;8.57;;;24.60;99.90;;;;;;4987925;28;20265;-88
2021/07/10 06:54:56;;;;;;;15.25;9.32;;;25.00;99.90;;;;;;5012841;28;20219;-89
2021/07/10 06:57:21;;;;;;;11.98;7.68;;;24.90;99.90;;;;;;4992438;28;20203;-89
2021/07/10 06:59:47;;;;;;;13.50;8.38;;;25.60;99.90;;;;;;5013261;28;20569;-89
2021/07/10 07:02:13;;;;;;;11.27;6.43;;;26.80;99.90;;;;;;5020191;28;20207;-88
2021/07/10 07:04:39;;;;;;;11.65;6.60;;;26.60;99.90;;;;;;5012043;28;20218;-88
2021/07/10 07:07:09;;;;;;;12.38;7.20;;;25.90;99.90;;;;;;5021038;28;20199;-88
2021/07/10 07:09:35;;;;;;;10.77;6.97;;;25.90;99.90;;;;;;5011307;28;20213;-89
2021/07/10 07:12:01;;;;;;;10.95;7.03;;;26.60;99.90;;;;;;5003495;28;20225;-88
2021/07/10 07:14:26;;;;;;;14.07;7.63;;;27.40;99.90;;;;;;5003732;28;20210;-89
2021/07/10 07:16:58;;;;;;;11.65;7.55;;;27.70;99.90;;;;;;4977110;28;20228;-89
2021/07/10 07:19:25;;;;;;;12.68;8.90;;;27.10;99.90;;;;;;4999976;28;20235;-89
2021/07/10 07:21:51;;;;;;;13.02;7.43;;;25.90;99.90;;;;;;5013591;28;21295;-89
2021/07/10 07:24:17;;;;;;;12.73;7.82;;;25.20;99.90;;;;;;4995923;28;20261;-88
2021/07/10 07:26:43;;;;;;;17.02;8.50;;;24.90;99.90;;;;;;4995246;28;20206;-88
2021/07/10 07:29:09;;;;;;;15.55;8.30;;;24.60;99.90;;;;;;4994645;28;20215;-90
2021/07/10 07:31:34;;;;;;;13.82;8.88;;;24.00;99.90;;;;;;4995310;28;20284;-89
2021/07/10 07:34:00;;;;;;;17.13;9.07;;;23.90;99.90;;;;;;5011706;28;20214;-89
2021/07/10 07:36:26;;;;;;;17.75;9.30;;;23.80;99.90;;;;;;5012040;28;20214;-88
2021/07/10 07:38:52;;;;;;;13.77;8.85;;;23.60;99.90;;;;;;5019647;28;20206;-88
2021/07/10 07:41:18;;;;;;;15.93;8.35;;;23.40;99.90;;;;;;4995821;28;20245;-89
2021/07/10 07:43:45;;;;;;;13.85;7.65;;;23.60;99.90;;;;;;5019358;28;20245;-89
2021/07/10 07:46:13;;;;;;;14.15;8.07;;;23.50;99.90;;;;;;4996417;28;20204;-88
2021/07/10 07:48:42;;;;;;;12.33;7.57;;;23.10;99.90;;;;;;5011649;28;20237;-88
2021/07/10 07:51:11;;;;;;;16.80;7.90;;;22.80;99.90;;;;;;5011871;28;20211;-89
2021/07/10 07:53:37;;;;;;;10.70;6.38;;;22.90;99.90;;;;;;5020086;28;20214;-89
2021/07/10 07:56:04;;;;;;;10.83;6.13;;;23.40;99.90;;;;;;5020595;28;20211;-89
2021/07/10 07:58:30;;;;;;;10.63;6.83;;;23.50;99.90;;;;;;5012478;28;20190;-89
2021/07/10 08:00:55;;;;;;;10.80;6.18;;;23.50;99.90;;;;;;5010907;28;20662;-89
2021/07/10 08:03:21;;;;;;;6.53;4.53;;;24.10;99.90;;;;;;5011044;28;20210;-88
2021/07/10 08:05:47;;;;;;;10.52;5.53;;;25.40;99.90;;;;;;4995421;28;20206;-89
2021/07/10 08:08:13;;;;;;;7.90;4.82;;;25.30;99.90;;;;;;4995374;28;20225;-89
2021/07/10 08:10:39;;;;;;;8.30;4.85;;;25.60;99.90;;;;;;4995152;28;20670;-89
2021/07/10 08:13:05;;;;;;;10.30;6.25;;;25.30;99.90;;;;;;5011582;28;20186;-89
2021/07/10 08:15:31;;;;;;;9.48;5.32;;;25.60;99.90;;;;;;5018234;28;20272;-89
2021/07/10 08:17:57;;;;;;;10.02;5.25;;;25.70;99.90;;;;;;5016159;28;20305;-88
2021/07/10 08:20:24;;;;;;;8.77;5.80;;;26.40;99.90;;;;;;4994845;28;20309;-88
2021/07/10 08:22:50;;;;;;;6.88;4.70;;;27.20;99.90;;;;;;5003722;28;20222;-88
2021/07/10 08:25:17;;;;;;;9.05;5.63;;;28.00;99.90;;;;;;5020264;28;20178;-88
2021/07/10 08:27:43;;;;;;;7.35;4.70;;;28.80;99.90;;;;;;4997658;28;20211;-89
2021/07/10 08:30:10;;;;;;;9.35;5.90;;;28.40;99.90;;;;;;4979176;28;20206;-88
2021/07/10 08:32:36;;;;;;;8.18;5.60;;;27.80;99.90;;;;;;5009227;28;20590;-88
2021/07/10 08:35:03;;;;;;;9.00;6.13;;;26.60;99.90;;;;;;5017041;28;20217;-89
2021/07/10 08:37:29;;;;;;;9.32;4.55;;;27.90;99.90;;;;;;5010859;28;20229;-89
2021/07/10 08:39:55;;;;;;;3.70;3.30;;;29.10;99.90;;;;;;5018942;28;20609;-88
2021/07/10 08:42:20;;;;;;;6.75;3.45;;;29.30;99.90;;;;;;5001198;28;20214;-88
2021/07/10 08:44:51;;;;;;;4.80;3.13;;;28.70;99.90;;;;;;4993918;28;20211;-89
2021/07/10 08:47:17;;;;;;;5.18;3.30;;;28.20;99.90;;;;;;5036791;28;20327;-89
2021/07/10 08:49:44;;;;;;;6.00;3.28;;;26.80;99.90;;;;;;5009857;28;20585;-89
2021/07/10 08:52:10;;;;;;;4.53;3.35;;;26.40;99.90;;;;;;5011848;28;20201;-88
2021/07/10 08:54:37;;;;;;;3.70;3.20;;;26.70;99.90;;;;;;4993431;28;20699;-89
2021/07/10 08:57:04;;;;;;;5.18;3.25;;;26.80;99.90;;;;;;5011148;28;20213;-88
2021/07/10 08:59:30;;;;;;;4.65;3.60;;;26.90;99.90;;;;;;5001824;28;20779;-89
2021/07/10 09:01:56;;;;;;;3.83;2.90;;;27.50;99.90;;;;;;5010986;28;20209;-90
2021/07/10 09:04:23;;;;;;;5.20;3.42;;;27.60;99.90;;;;;;5019823;28;20202;-89
2021/07/10 09:06:50;;;;;;;4.32;3.08;;;26.90;99.90;;;;;;4994592;28;20178;-89
2021/07/10 09:09:16;;;;;;;4.03;3.17;;;26.30;99.90;;;;;;5009449;28;20226;-89
2021/07/10 09:11:57;;;;;;;3.22;2.58;;;25.10;99.90;;;;;;5009361;28;20697;-89
2021/07/10 09:14:32;;;;;;;4.63;3.15;;;24.10;99.90;;;;;;5012263;28;20213;-89
2021/07/10 09:17:18;;;;;;;4.82;3.60;;;22.90;99.90;;;;;;5000912;28;20224;-88
2021/07/10 09:19:45;;;;;;;7.30;3.55;;;22.50;99.90;;;;;;5019584;28;20237;-88
2021/07/10 09:22:11;;;;;;;5.72;3.60;;;22.70;99.90;;;;;;5009971;28;20221;-88
2021/07/10 09:24:38;;;;;;;4.68;3.25;;;23.00;99.90;;;;;;5009224;28;20274;-89
2021/07/10 09:27:09;;;;;;;3.83;3.30;;;23.00;99.90;;;;;;5002729;28;20277;-89
2021/07/10 09:29:39;;;;;;;3.20;2.90;;;22.80;99.90;;;;;;5017349;28;20246;-89
2021/07/10 09:32:11;;;;;;;4.25;3.30;;;22.50;99.90;;;;;;5017665;28;20210;-89
2021/07/10 09:34:40;;;;;;;3.92;3.15;;;22.40;99.90;;;;;;5017595;28;20323;-88
2021/07/10 09:37:07;;;;;;;3.97;2.97;;;22.40;99.90;;;;;;5017602;28;20178;-90
2021/07/10 09:39:41;;;;;;;2.80;2.53;;;22.40;99.90;;;;;;5017618;28;20604;-88
2021/07/10 09:42:07;;;;;;;3.85;2.70;;;22.20;99.90;;;;;;5018231;28;20216;-88
2021/07/10 09:44:47;;;;;;;4.68;2.97;;;21.90;99.90;;;;;;5019731;28;20210;-88
2021/07/10 09:47:16;;;;;;;5.20;4.57;;;22.20;99.90;;;;;;5034811;28;20209;-88
2021/07/10 09:49:45;;;;;;;4.45;3.20;;;22.50;99.90;;;;;;5018875;28;20240;-87
2021/07/10 09:52:14;;;;;;;5.27;3.20;;;22.60;99.90;;;;;;5037134;28;20190;-88
2021/07/10 09:54:46;;;;;;;5.33;3.07;;;22.60;99.90;;;;;;5016777;28;20706;-88
2021/07/10 09:57:39;;;;;;;3.53;2.87;;;22.50;99.90;;;;;;5034727;28;20698;-88
2021/07/10 10:00:10;;;;;;;4.83;3.20;;;22.60;99.90;;;;;;5013111;28;20229;-89
2021/07/10 10:02:47;;;;;;;3.67;2.77;;;22.50;99.90;;;;;;5019818;28;20209;-89
2021/07/10 10:05:16;;;;;;;4.83;2.97;;;23.30;99.90;;;;;;5017835;28;20214;-88
2021/07/10 10:07:47;;;;;;;3.43;2.53;;;24.00;99.90;;;;;;5017134;28;20214;-88
2021/07/10 10:10:26;;;;;;;2.95;2.65;;;24.10;99.90;;;;;;5019139;28;20589;-88
2021/07/10 10:13:04;;;;;;;3.28;2.78;;;24.10;99.90;;;;;;5013741;28;20214;-89
2021/07/10 10:15:51;;;;;;;3.83;2.70;;;24.10;99.90;;;;;;5014839;28;20305;-90
2021/07/10 10:18:22;;;;;;;2.83;2.22;;;24.30;99.90;;;;;;5018026;28;20214;-89
2021/07/10 10:20:52;;;;;;;4.55;2.50;;;23.90;99.90;;;;;;5008173;28;20291;-89
2021/07/10 10:23:19;;;;;;;3.20;2.45;;;24.10;99.90;;;;;;5010440;28;20214;-90
2021/07/10 10:25:46;;;;;;;2.83;2.42;;;23.80;99.90;;;;;;5013426;28;20767;-89
2021/07/10 10:28:20;;;;;;;3.72;2.42;;;23.50;99.90;;;;;;5021040;28;20186;-89
2021/07/10 10:30:54;;;;;;;2.95;2.58;;;23.50;99.90;;;;;;5020489;28;20740;-88
2021/07/10 10:33:21;;;;;;;3.95;2.63;;;24.50;99.90;;;;;;5023630;28;20222;-89
2021/07/10 10:35:49;;;;;;;3.92;2.90;;;25.20;99.90;;;;;;5021117;28;20213;-89
2021/07/10 10:38:16;;;;;;;3.50;2.85;;;26.10;99.90;;;;;;5005517;28;20210;-89
2021/07/10 10:40:43;;;;;;;5.63;2.85;;;26.50;99.90;;;;;;4997202;28;20244;-89
2021/07/10 10:43:14;;;;;;;3.95;3.45;;;25.70;99.90;;;;;;5006567;28;20179;-89
2021/07/10 10:45:41;;;;;;;6.63;3.60;;;25.20;99.90;;;;;;5013097;28;20702;-88
2021/07/10 10:48:07;;;;;;;3.33;2.85;;;25.10;99.90;;;;;;4997050;28;20594;-89
2021/07/10 10:50:38;;;;;;;4.55;3.20;;;24.60;99.90;;;;;;5013306;28;20663;-89
2021/07/10 10:53:06;;;;;;;8.05;4.03;;;24.10;99.90;;;;;;5022304;28;20224;-88
2021/07/10 10:55:32;;;;;;;5.63;3.35;;;23.90;99.90;;;;;;5013259;28;20190;-89
2021/07/10 10:58:00;;;;;;;5.50;3.60;;;24.20;99.90;;;;;;5022407;28;20183;-89
2021/07/10 11:00:31;;;;;;;5.43;3.70;;;24.10;99.90;;;;;;5022601;28;20229;-88
2021/07/10 11:03:08;;;;;;;4.70;3.20;;;24.00;99.90;;;;;;5023957;28;20686;-88
2021/07/10 11:05:34;;;;;;;6.07;4.13;;;24.30;99.90;;;;;;5000983;28;20261;-88
2021/07/10 11:08:18;;;;;;;3.58;3.28;;;24.00;99.90;;;;;;5017683;28;20246;-89
2021/07/10 11:11:04;;;;;;;6.22;4.15;;;23.70;99.90;;;;;;5003596;28;20230;-90
2021/07/10 11:13:40;;;;;;;4.88;3.28;;;24.00;99.90;;;;;;4974999;28;20290;-88
2021/07/10 11:16:18;;;;;;;6.50;4.13;;;23.90;99.90;;;;;;5001385;28;20273;-88
2021/07/10 11:18:56;;;;;;;9.05;4.40;;;23.60;99.90;;;;;;5001010;28;20684;-88
2021/07/10 11:21:34;;;;;;;6.45;3.80;;;23.40;99.90;;;;;;5018075;28;20211;-88
2021/07/10 11:26:56;;;;;;;5.65;4.10;;;23.30;99.90;;;;;;5019365;28;20715;-88
2021/07/10 11:29:32;;;;;;;6.93;3.63;;;23.40;99.90;;;;;;4999017;28;20309;-88
2021/07/10 11:32:19;;;;;;;4.13;3.40;;;23.00;99.90;;;;;;5006697;28;20713;-88
2021/07/10 11:34:50;;;;;;;5.68;3.30;;;22.60;99.90;;;;;;5019174;28;20298;-89
2021/07/10 11:37:22;;;;;;;3.63;3.25;;;22.70;99.90;;;;;;5019147;28;20214;-89
2021/07/10 11:39:59;;;;;;;3.95;3.20;;;22.30;99.90;;;;;;5038556;28;20273;-89
2021/07/10 11:42:26;;;;;;;4.28;2.97;;;22.60;99.90;;;;;;5016805;28;20292;-88
2021/07/10 11:45:18;;;;;;;4.30;3.40;;;22.60;99.90;;;;;;5013994;28;20218;-89
2021/07/10 11:47:51;;;;;;;8.40;4.10;;;23.10;99.90;;;;;;5010149;28;20290;-89
2021/07/10 11:50:30;;;;;;;7.13;3.85;;;23.60;99.90;;;;;;5019074;28;20221;-88
2021/07/10 11:53:05;;;;;;;4.68;3.65;;;23.60;99.90;;;;;;5018617;28;20251;-89
2021/07/10 11:55:34;;;;;;;5.10;3.35;;;23.90;99.90;;;;;;5022087;28;20194;-88
2021/07/10 11:58:11;;;;;;;5.45;4.22;;;23.40;99.90;;;;;;5024163;28;20178;-88
2021/07/10 12:00:37;;;;;;;6.80;4.10;;;22.60;99.90;;;;;;5038908;28;20233;-88
2021/07/10 12:03:13;;;;;;;7.10;4.28;;;22.60;99.90;;;;;;5019030;28;20245;-88
2021/07/10 12:05:39;;;;;;;7.20;4.30;;;22.90;99.90;;;;;;5013292;28;20202;-88
2021/07/10 12:08:05;;;;;;;7.13;4.30;;;22.70;99.90;;;;;;5011531;28;20373;-89
2021/07/10 12:10:35;;;;;;;5.95;4.40;;;22.70;99.90;;;;;;4995851;28;20194;-88
2021/07/10 12:13:15;;;;;;;5.68;4.25;;;22.90;99.90;;;;;;5021426;28;20189;-88
2021/07/10 12:15:43;;;;;;;6.88;3.85;;;23.00;99.90;;;;;;5018905;28;20210;-88
2021/07/10 12:18:12;;;;;;;6.88;4.97;;;22.60;99.90;;;;;;5023199;28;20232;-88
2021/07/10 12:20:41;;;;;;;10.00;4.97;;;22.20;99.90;;;;;;5017189;28;20223;-88
2021/07/10 12:23:13;;;;;;;8.05;4.93;;;22.50;99.90;;;;;;5025973;28;20249;-88
2021/07/10 12:25:59;;;;;;;8.60;5.22;;;23.40;99.90;;;;;;5017818;28;20187;-88
2021/07/10 12:28:35;;;;;;;9.30;5.55;;;23.00;99.90;;;;;;5016154;28;20191;-88
2021/07/10 12:31:03;;;;;;;8.32;5.25;;;22.90;99.90;;;;;;5017743;28;20182;-88
2021/07/10 12:33:50;;;;;;;8.30;5.13;;;22.40;99.90;;;;;;5024582;28;20671;-88
2021/07/10 12:36:39;;;;;;;6.53;4.72;;;22.70;99.90;;;;;;5015445;28;20594;-88
2021/07/10 12:39:22;;;;;;;10.20;5.65;;;23.80;99.90;;;;;;5013835;28;20575;-88
2021/07/10 12:41:49;;;;;;;8.90;5.93;;;23.30;99.90;;;;;;5016267;28;20753;-88
2021/07/10 12:44:38;;;;;;;10.93;5.72;;;23.00;99.90;;;;;;5015261;28;20298;-88